sensor_id;sensor_type;location;lat;lon;timestamp;P1;durP1;ratioP1;P2;durP2;ratioP2
4434;SDS011;46552;52.150;8.428;2022-11-18T00:01:12;17.40;;;10.20;;
4434;SDS011;46552;52.150;8.428;2022-11-18T00:03:42;15.43;;;10.57;;
4434;SDS011;46552;52.150;8.428;2022-11-18T00:06:11;18.10;;;10.20;;
4434;SDS011;46552;52.150;8.428;2022-11-18T00:08:40;16.83;;;10.07;;
4434;SDS011;46552;52.150;8.428;2022-11-18T00:11:08;20.87;;;10.10;;
4434;SDS011;46552;52.150;8.428;2022-11-18T00:13:37;15.20;;;9.63;;
4434;SDS011;46552;52.150;8.428;2022-11-18T00:16:23;18.63;;;11.70;;
4434;SDS011;46552;52.150;8.428;2022-11-18T00:18:50;19.23;;;11.23;;
4434;SDS011;46552;52.150;8.428;2022-11-18T00:21:19;15.80;;;10.20;;
4434;SDS011;46552;52.150;8.428;2022-11-18T00:23:47;17.70;;;10.40;;
4434;SDS011;46552;52.150;8.428;2022-11-18T00:26:14;16.07;;;9.73;;
4434;SDS011;46552;52.150;8.428;2022-11-18T00:28:42;15.97;;;10.80;;
4434;SDS011;46552;52.150;8.428;2022-11-18T00:31:09;18.67;;;10.87;;
4434;SDS011;46552;52.150;8.428;2022-11-18T00:33:40;21.17;;;11.57;;
4434;SDS011;46552;52.150;8.428;2022-11-18T00:36:09;22.43;;;9.10;;
4434;SDS011;46552;52.150;8.428;2022-11-18T00:38:37;19.37;;;10.40;;
4434;SDS011;46552;52.150;8.428;2022-11-18T00:41:05;18.90;;;11.30;;
4434;SDS011;46552;52.150;8.428;2022-11-18T00:43:36;18.83;;;10.70;;
4434;SDS011;46552;52.150;8.428;2022-11-18T00:46:03;19.77;;;10.80;;
4434;SDS011;46552;52.150;8.428;2022-11-18T00:48:32;17.63;;;10.57;;
4434;SDS011;46552;52.150;8.428;2022-11-18T00:51:06;18.67;;;13.10;;
4434;SDS011;46552;52.150;8.428;2022-11-18T00:53:35;17.17;;;11.60;;
4434;SDS011;46552;52.150;8.428;2022-11-18T00:56:02;21.07;;;12.47;;
4434;SDS011;46552;52.150;8.428;2022-11-18T00:58:30;21.63;;;12.40;;
4434;SDS011;46552;52.150;8.428;2022-11-18T01:00:58;21.67;;;11.97;;
4434;SDS011;46552;52.150;8.428;2022-11-18T01:03:26;20.53;;;11.27;;
4434;SDS011;46552;52.150;8.428;2022-11-18T01:05:54;18.13;;;12.10;;
4434;SDS011;46552;52.150;8.428;2022-11-18T01:08:22;19.00;;;10.50;;
4434;SDS011;46552;52.150;8.428;2022-11-18T01:10:50;22.10;;;13.07;;
4434;SDS011;46552;52.150;8.428;2022-11-18T01:13:18;23.20;;;12.10;;
4434;SDS011;46552;52.150;8.428;2022-11-18T01:15:47;19.70;;;11.87;;
4434;SDS011;46552;52.150;8.428;2022-11-18T01:18:15;22.57;;;13.00;;
4434;SDS011;46552;52.150;8.428;2022-11-18T01:20:44;19.73;;;12.03;;
4434;SDS011;46552;52.150;8.428;2022-11-18T01:23:12;21.60;;;12.57;;
4434;SDS011;46552;52.150;8.428;2022-11-18T01:25:41;22.00;;;13.83;;
4434;SDS011;46552;52.150;8.428;2022-11-18T01:28:10;23.83;;;13.00;;
4434;SDS011;46552;52.150;8.428;2022-11-18T01:30:38;20.80;;;12.70;;
4434;SDS011;46552;52.150;8.428;2022-11-18T01:33:05;24.70;;;13.67;;
4434;SDS011;46552;52.150;8.428;2022-11-18T01:35:33;22.70;;;15.70;;
4434;SDS011;46552;52.150;8.428;2022-11-18T01:38:01;19.03;;;12.50;;
4434;SDS011;46552;52.150;8.428;2022-11-18T01:40:29;21.50;;;13.20;;
4434;SDS011;46552;52.150;8.428;2022-11-18T01:42:58;24.57;;;14.00;;
4434;SDS011;46552;52.150;8.428;2022-11-18T01:45:27;24.30;;;13.30;;
4434;SDS011;46552;52.150;8.428;2022-11-18T01:48:01;18.60;;;12.70;;
4434;SDS011;46552;52.150;8.428;2022-11-18T01:50:33;21.27;;;12.07;;
4434;SDS011;46552;52.150;8.428;2022-11-18T01:53:03;28.60;;;13.90;;
4434;SDS011;46552;52.150;8.428;2022-11-18T01:55:34;21.53;;;13.97;;
4434;SDS011;46552;52.150;8.428;2022-11-18T01:58:06;21.33;;;14.43;;
4434;SDS011;46552;52.150;8.428;2022-11-18T02:00:35;23.33;;;13.33;;
4434;SDS011;46552;52.150;8.428;2022-11-18T02:03:04;20.63;;;13.57;;
4434;SDS011;46552;52.150;8.428;2022-11-18T02:05:32;28.50;;;14.43;;
4434;SDS011;46552;52.150;8.428;2022-11-18T02:08:00;21.50;;;13.23;;
4434;SDS011;46552;52.150;8.428;2022-11-18T02:10:30;23.90;;;13.57;;
4434;SDS011;46552;52.150;8.428;2022-11-18T02:12:58;23.60;;;13.67;;
4434;SDS011;46552;52.150;8.428;2022-11-18T02:15:35;22.20;;;13.53;;
4434;SDS011;46552;52.150;8.428;2022-11-18T02:18:13;28.93;;;13.63;;
4434;SDS011;46552;52.150;8.428;2022-11-18T02:20:47;22.70;;;12.90;;
4434;SDS011;46552;52.150;8.428;2022-11-18T02:23:24;21.93;;;11.90;;
4434;SDS011;46552;52.150;8.428;2022-11-18T02:29:37;24.70;;;14.13;;
4434;SDS011;46552;52.150;8.428;2022-11-18T02:32:10;29.60;;;14.53;;
4434;SDS011;46552;52.150;8.428;2022-11-18T02:34:39;30.37;;;14.87;;
4434;SDS011;46552;52.150;8.428;2022-11-18T02:37:15;29.67;;;15.97;;
4434;SDS011;46552;52.150;8.428;2022-11-18T02:39:50;26.67;;;15.20;;
4434;SDS011;46552;52.150;8.428;2022-11-18T02:42:23;36.17;;;20.20;;
4434;SDS011;46552;52.150;8.428;2022-11-18T02:44:57;31.37;;;19.13;;
4434;SDS011;46552;52.150;8.428;2022-11-18T02:47:29;28.83;;;18.10;;
4434;SDS011;46552;52.150;8.428;2022-11-18T02:50:00;31.90;;;16.33;;
4434;SDS011;46552;52.150;8.428;2022-11-18T02:52:30;32.77;;;17.47;;
4434;SDS011;46552;52.150;8.428;2022-11-18T02:55:00;28.10;;;16.50;;
4434;SDS011;46552;52.150;8.428;2022-11-18T02:57:30;28.30;;;14.33;;
4434;SDS011;46552;52.150;8.428;2022-11-18T03:00:04;25.60;;;13.60;;
4434;SDS011;46552;52.150;8.428;2022-11-18T03:02:38;25.83;;;14.57;;
4434;SDS011;46552;52.150;8.428;2022-11-18T03:05:07;26.83;;;13.83;;
4434;SDS011;46552;52.150;8.428;2022-11-18T03:07:38;26.43;;;14.70;;
4434;SDS011;46552;52.150;8.428;2022-11-18T03:10:08;24.00;;;13.63;;
4434;SDS011;46552;52.150;8.428;2022-11-18T03:12:38;25.27;;;13.97;;
4434;SDS011;46552;52.150;8.428;2022-11-18T03:15:15;26.53;;;13.17;;
4434;SDS011;46552;52.150;8.428;2022-11-18T03:17:53;25.37;;;15.37;;
4434;SDS011;46552;52.150;8.428;2022-11-18T03:20:26;25.63;;;13.27;;
4434;SDS011;46552;52.150;8.428;2022-11-18T03:22:59;33.93;;;15.33;;
4434;SDS011;46552;52.150;8.428;2022-11-18T03:25:33;28.63;;;16.07;;
4434;SDS011;46552;52.150;8.428;2022-11-18T03:28:06;24.33;;;14.90;;
4434;SDS011;46552;52.150;8.428;2022-11-18T03:30:37;26.30;;;15.10;;
4434;SDS011;46552;52.150;8.428;2022-11-18T03:33:09;28.53;;;15.93;;
4434;SDS011;46552;52.150;8.428;2022-11-18T03:35:40;29.10;;;14.77;;
4434;SDS011;46552;52.150;8.428;2022-11-18T03:38:12;26.77;;;13.77;;
4434;SDS011;46552;52.150;8.428;2022-11-18T03:40:41;24.77;;;14.20;;
4434;SDS011;46552;52.150;8.428;2022-11-18T03:43:14;34.00;;;14.40;;
4434;SDS011;46552;52.150;8.428;2022-11-18T03:45:48;26.17;;;14.60;;
4434;SDS011;46552;52.150;8.428;2022-11-18T03:48:18;26.10;;;14.50;;
4434;SDS011;46552;52.150;8.428;2022-11-18T03:50:49;31.57;;;14.80;;
4434;SDS011;46552;52.150;8.428;2022-11-18T03:53:20;25.03;;;12.87;;
4434;SDS011;46552;52.150;8.428;2022-11-18T03:55:51;25.07;;;14.33;;
4434;SDS011;46552;52.150;8.428;2022-11-18T03:58:24;25.63;;;14.20;;
4434;SDS011;46552;52.150;8.428;2022-11-18T04:00:58;28.13;;;12.90;;
4434;SDS011;46552;52.150;8.428;2022-11-18T04:03:30;30.23;;;14.77;;
4434;SDS011;46552;52.150;8.428;2022-11-18T04:05:58;24.17;;;13.83;;
4434;SDS011;46552;52.150;8.428;2022-11-18T04:08:35;25.13;;;15.50;;
4434;SDS011;46552;52.150;8.428;2022-11-18T04:11:07;25.40;;;15.37;;
4434;SDS011;46552;52.150;8.428;2022-11-18T04:13:59;26.40;;;14.87;;
4434;SDS011;46552;52.150;8.428;2022-11-18T04:16:28;26.43;;;17.30;;
4434;SDS011;46552;52.150;8.428;2022-11-18T04:18:55;28.47;;;16.30;;
4434;SDS011;46552;52.150;8.428;2022-11-18T04:21:22;31.50;;;17.10;;
4434;SDS011;46552;52.150;8.428;2022-11-18T04:23:49;29.33;;;17.13;;
4434;SDS011;46552;52.150;8.428;2022-11-18T04:26:17;27.07;;;16.50;;
4434;SDS011;46552;52.150;8.428;2022-11-18T04:28:44;33.73;;;21.47;;
4434;SDS011;46552;52.150;8.428;2022-11-18T04:31:11;39.17;;;23.30;;
4434;SDS011;46552;52.150;8.428;2022-11-18T04:33:40;32.27;;;18.70;;
4434;SDS011;46552;52.150;8.428;2022-11-18T04:36:08;24.93;;;13.83;;
4434;SDS011;46552;52.150;8.428;2022-11-18T04:38:35;27.90;;;15.53;;
4434;SDS011;46552;52.150;8.428;2022-11-18T04:41:03;35.77;;;14.67;;
4434;SDS011;46552;52.150;8.428;2022-11-18T04:43:30;33.10;;;17.40;;
4434;SDS011;46552;52.150;8.428;2022-11-18T04:45:57;26.37;;;17.80;;
4434;SDS011;46552;52.150;8.428;2022-11-18T04:48:24;30.47;;;16.43;;
4434;SDS011;46552;52.150;8.428;2022-11-18T04:50:54;26.93;;;16.63;;
4434;SDS011;46552;52.150;8.428;2022-11-18T04:53:22;24.43;;;14.77;;
4434;SDS011;46552;52.150;8.428;2022-11-18T04:55:49;27.90;;;15.50;;
4434;SDS011;46552;52.150;8.428;2022-11-18T04:58:16;28.57;;;16.33;;
4434;SDS011;46552;52.150;8.428;2022-11-18T05:00:44;47.50;;;32.70;;
4434;SDS011;46552;52.150;8.428;2022-11-18T05:03:13;53.43;;;34.37;;
4434;SDS011;46552;52.150;8.428;2022-11-18T05:05:40;37.23;;;24.10;;
4434;SDS011;46552;52.150;8.428;2022-11-18T05:08:10;33.93;;;19.57;;
4434;SDS011;46552;52.150;8.428;2022-11-18T05:10:37;31.37;;;17.97;;
4434;SDS011;46552;52.150;8.428;2022-11-18T05:13:04;34.13;;;17.50;;
4434;SDS011;46552;52.150;8.428;2022-11-18T05:15:30;28.80;;;14.97;;
4434;SDS011;46552;52.150;8.428;2022-11-18T05:17:58;32.50;;;18.47;;
4434;SDS011;46552;52.150;8.428;2022-11-18T05:20:25;32.97;;;18.33;;
4434;SDS011;46552;52.150;8.428;2022-11-18T05:22:53;32.50;;;18.23;;
4434;SDS011;46552;52.150;8.428;2022-11-18T05:25:21;33.17;;;17.80;;
4434;SDS011;46552;52.150;8.428;2022-11-18T05:27:48;36.43;;;19.67;;
4434;SDS011;46552;52.150;8.428;2022-11-18T05:30:17;32.37;;;17.63;;
4434;SDS011;46552;52.150;8.428;2022-11-18T05:32:44;36.90;;;17.77;;
4434;SDS011;46552;52.150;8.428;2022-11-18T05:35:12;48.23;;;18.47;;
4434;SDS011;46552;52.150;8.428;2022-11-18T05:37:40;34.83;;;17.53;;
4434;SDS011;46552;52.150;8.428;2022-11-18T05:40:08;33.10;;;16.67;;
4434;SDS011;46552;52.150;8.428;2022-11-18T05:42:38;41.57;;;18.63;;
4434;SDS011;46552;52.150;8.428;2022-11-18T05:45:23;38.00;;;18.70;;
4434;SDS011;46552;52.150;8.428;2022-11-18T05:47:50;42.63;;;19.50;;
4434;SDS011;46552;52.150;8.428;2022-11-18T05:50:27;36.50;;;18.30;;
4434;SDS011;46552;52.150;8.428;2022-11-18T05:52:54;34.43;;;18.00;;
4434;SDS011;46552;52.150;8.428;2022-11-18T05:55:21;32.53;;;18.10;;
4434;SDS011;46552;52.150;8.428;2022-11-18T05:57:52;36.93;;;18.10;;
4434;SDS011;46552;52.150;8.428;2022-11-18T06:00:19;32.10;;;18.00;;
4434;SDS011;46552;52.150;8.428;2022-11-18T06:02:46;30.10;;;16.33;;
4434;SDS011;46552;52.150;8.428;2022-11-18T06:05:16;37.90;;;16.40;;
4434;SDS011;46552;52.150;8.428;2022-11-18T06:07:46;41.20;;;16.83;;
4434;SDS011;46552;52.150;8.428;2022-11-18T06:10:15;31.13;;;15.50;;
4434;SDS011;46552;52.150;8.428;2022-11-18T06:12:46;30.00;;;15.00;;
4434;SDS011;46552;52.150;8.428;2022-11-18T06:15:19;33.83;;;15.80;;
4434;SDS011;46552;52.150;8.428;2022-11-18T06:17:49;35.40;;;16.90;;
4434;SDS011;46552;52.150;8.428;2022-11-18T06:20:20;30.00;;;15.70;;
4434;SDS011;46552;52.150;8.428;2022-11-18T06:22:48;33.13;;;16.67;;
4434;SDS011;46552;52.150;8.428;2022-11-18T06:25:19;39.80;;;16.73;;
4434;SDS011;46552;52.150;8.428;2022-11-18T06:27:47;30.47;;;14.83;;
4434;SDS011;46552;52.150;8.428;2022-11-18T06:30:15;34.63;;;15.50;;
4434;SDS011;46552;52.150;8.428;2022-11-18T06:32:44;29.87;;;15.13;;
4434;SDS011;46552;52.150;8.428;2022-11-18T06:35:11;28.43;;;14.70;;
4434;SDS011;46552;52.150;8.428;2022-11-18T06:37:40;29.70;;;15.30;;
4434;SDS011;46552;52.150;8.428;2022-11-18T06:40:07;27.03;;;15.10;;
4434;SDS011;46552;52.150;8.428;2022-11-18T06:42:35;25.70;;;14.33;;
4434;SDS011;46552;52.150;8.428;2022-11-18T06:45:20;26.23;;;16.43;;
4434;SDS011;46552;52.150;8.428;2022-11-18T06:47:50;29.33;;;14.63;;
4434;SDS011;46552;52.150;8.428;2022-11-18T06:50:17;26.40;;;13.47;;
4434;SDS011;46552;52.150;8.428;2022-11-18T06:52:44;40.37;;;19.63;;
4434;SDS011;46552;52.150;8.428;2022-11-18T06:55:12;44.33;;;17.57;;
4434;SDS011;46552;52.150;8.428;2022-11-18T06:57:40;29.03;;;15.03;;
4434;SDS011;46552;52.150;8.428;2022-11-18T07:00:08;24.23;;;13.57;;
4434;SDS011;46552;52.150;8.428;2022-11-18T07:02:37;24.30;;;13.97;;
4434;SDS011;46552;52.150;8.428;2022-11-18T07:05:06;28.20;;;13.57;;
4434;SDS011;46552;52.150;8.428;2022-11-18T07:07:35;29.40;;;13.60;;
4434;SDS011;46552;52.150;8.428;2022-11-18T07:10:03;30.53;;;14.73;;
4434;SDS011;46552;52.150;8.428;2022-11-18T07:12:31;25.83;;;13.00;;
4434;SDS011;46552;52.150;8.428;2022-11-18T07:14:58;31.03;;;13.80;;
4434;SDS011;46552;52.150;8.428;2022-11-18T07:17:25;21.63;;;12.90;;
4434;SDS011;46552;52.150;8.428;2022-11-18T07:19:55;21.90;;;11.40;;
4434;SDS011;46552;52.150;8.428;2022-11-18T07:22:23;22.33;;;12.50;;
4434;SDS011;46552;52.150;8.428;2022-11-18T07:24:51;21.83;;;11.63;;
4434;SDS011;46552;52.150;8.428;2022-11-18T07:27:18;32.33;;;11.23;;
4434;SDS011;46552;52.150;8.428;2022-11-18T07:29:45;20.63;;;11.80;;
4434;SDS011;46552;52.150;8.428;2022-11-18T07:32:12;23.70;;;11.90;;
4434;SDS011;46552;52.150;8.428;2022-11-18T07:34:40;22.30;;;11.80;;
4434;SDS011;46552;52.150;8.428;2022-11-18T07:37:09;17.90;;;9.80;;
4434;SDS011;46552;52.150;8.428;2022-11-18T07:39:38;22.47;;;9.73;;
4434;SDS011;46552;52.150;8.428;2022-11-18T07:42:05;28.83;;;11.07;;
4434;SDS011;46552;52.150;8.428;2022-11-18T07:44:32;20.20;;;10.30;;
4434;SDS011;46552;52.150;8.428;2022-11-18T07:46:59;19.90;;;9.30;;
4434;SDS011;46552;52.150;8.428;2022-11-18T07:49:26;25.20;;;11.13;;
4434;SDS011;46552;52.150;8.428;2022-11-18T07:51:53;16.33;;;9.97;;
4434;SDS011;46552;52.150;8.428;2022-11-18T07:54:20;16.30;;;9.40;;
4434;SDS011;46552;52.150;8.428;2022-11-18T07:56:50;19.07;;;11.77;;
4434;SDS011;46552;52.150;8.428;2022-11-18T07:59:17;22.50;;;10.77;;
4434;SDS011;46552;52.150;8.428;2022-11-18T08:01:44;21.53;;;10.90;;
4434;SDS011;46552;52.150;8.428;2022-11-18T08:04:11;18.97;;;10.43;;
4434;SDS011;46552;52.150;8.428;2022-11-18T08:06:39;20.90;;;9.97;;
4434;SDS011;46552;52.150;8.428;2022-11-18T08:09:07;19.30;;;10.80;;
4434;SDS011;46552;52.150;8.428;2022-11-18T08:11:34;18.47;;;9.87;;
4434;SDS011;46552;52.150;8.428;2022-11-18T08:14:05;19.20;;;9.13;;
4434;SDS011;46552;52.150;8.428;2022-11-18T08:16:32;19.50;;;9.60;;
4434;SDS011;46552;52.150;8.428;2022-11-18T08:18:59;21.73;;;11.87;;
4434;SDS011;46552;52.150;8.428;2022-11-18T08:21:26;19.30;;;11.10;;
4434;SDS011;46552;52.150;8.428;2022-11-18T08:23:54;21.07;;;11.70;;
4434;SDS011;46552;52.150;8.428;2022-11-18T08:26:22;20.53;;;11.23;;
4434;SDS011;46552;52.150;8.428;2022-11-18T08:28:50;21.07;;;10.60;;
4434;SDS011;46552;52.150;8.428;2022-11-18T08:31:20;17.90;;;10.40;;
4434;SDS011;46552;52.150;8.428;2022-11-18T08:33:53;19.30;;;11.33;;
4434;SDS011;46552;52.150;8.428;2022-11-18T08:36:20;19.47;;;10.50;;
4434;SDS011;46552;52.150;8.428;2022-11-18T08:38:49;22.17;;;11.63;;
4434;SDS011;46552;52.150;8.428;2022-11-18T08:41:18;18.77;;;9.90;;
4434;SDS011;46552;52.150;8.428;2022-11-18T08:43:50;19.07;;;10.47;;
4434;SDS011;46552;52.150;8.428;2022-11-18T08:46:17;24.03;;;12.37;;
4434;SDS011;46552;52.150;8.428;2022-11-18T08:48:47;18.70;;;9.47;;
4434;SDS011;46552;52.150;8.428;2022-11-18T08:51:15;22.27;;;11.00;;
4434;SDS011;46552;52.150;8.428;2022-11-18T08:53:42;20.57;;;11.37;;
4434;SDS011;46552;52.150;8.428;2022-11-18T08:56:12;22.37;;;10.50;;
4434;SDS011;46552;52.150;8.428;2022-11-18T08:58:41;22.53;;;11.23;;
4434;SDS011;46552;52.150;8.428;2022-11-18T09:01:08;22.97;;;11.43;;
4434;SDS011;46552;52.150;8.428;2022-11-18T09:03:37;22.43;;;10.77;;
4434;SDS011;46552;52.150;8.428;2022-11-18T09:06:06;30.07;;;11.43;;
4434;SDS011;46552;52.150;8.428;2022-11-18T09:08:34;24.80;;;10.50;;
4434;SDS011;46552;52.150;8.428;2022-11-18T09:11:03;24.13;;;11.20;;
4434;SDS011;46552;52.150;8.428;2022-11-18T09:13:32;28.13;;;13.53;;
4434;SDS011;46552;52.150;8.428;2022-11-18T09:15:59;23.23;;;12.27;;
4434;SDS011;46552;52.150;8.428;2022-11-18T09:18:27;20.60;;;12.63;;
4434;SDS011;46552;52.150;8.428;2022-11-18T09:20:58;25.67;;;10.97;;
4434;SDS011;46552;52.150;8.428;2022-11-18T09:23:26;22.77;;;12.30;;
4434;SDS011;46552;52.150;8.428;2022-11-18T09:25:56;33.37;;;12.47;;
4434;SDS011;46552;52.150;8.428;2022-11-18T09:28:23;25.17;;;12.30;;
4434;SDS011;46552;52.150;8.428;2022-11-18T09:30:51;20.43;;;10.93;;
4434;SDS011;46552;52.150;8.428;2022-11-18T09:33:18;20.87;;;11.37;;
4434;SDS011;46552;52.150;8.428;2022-11-18T09:35:45;18.77;;;12.00;;
4434;SDS011;46552;52.150;8.428;2022-11-18T09:38:13;23.57;;;11.37;;
4434;SDS011;46552;52.150;8.428;2022-11-18T09:40:42;24.77;;;12.10;;
4434;SDS011;46552;52.150;8.428;2022-11-18T09:43:24;21.87;;;12.63;;
4434;SDS011;46552;52.150;8.428;2022-11-18T09:46:02;24.60;;;12.13;;
4434;SDS011;46552;52.150;8.428;2022-11-18T09:48:36;24.33;;;12.50;;
4434;SDS011;46552;52.150;8.428;2022-11-18T09:51:20;24.30;;;11.93;;
4434;SDS011;46552;52.150;8.428;2022-11-18T09:53:56;27.97;;;12.60;;
4434;SDS011;46552;52.150;8.428;2022-11-18T09:56:24;27.57;;;13.43;;
4434;SDS011;46552;52.150;8.428;2022-11-18T09:58:54;19.93;;;11.93;;
4434;SDS011;46552;52.150;8.428;2022-11-18T10:01:22;26.20;;;13.80;;
4434;SDS011;46552;52.150;8.428;2022-11-18T10:03:50;24.50;;;13.03;;
4434;SDS011;46552;52.150;8.428;2022-11-18T10:06:19;24.00;;;13.00;;
4434;SDS011;46552;52.150;8.428;2022-11-18T10:08:56;23.70;;;13.50;;
4434;SDS011;46552;52.150;8.428;2022-11-18T10:11:32;28.40;;;14.00;;
4434;SDS011;46552;52.150;8.428;2022-11-18T10:14:07;26.83;;;13.57;;
4434;SDS011;46552;52.150;8.428;2022-11-18T10:16:46;23.30;;;12.57;;
4434;SDS011;46552;52.150;8.428;2022-11-18T10:19:23;30.97;;;15.70;;
4434;SDS011;46552;52.150;8.428;2022-11-18T10:21:57;24.83;;;15.67;;
4434;SDS011;46552;52.150;8.428;2022-11-18T10:24:40;34.53;;;16.93;;
4434;SDS011;46552;52.150;8.428;2022-11-18T10:27:10;32.00;;;16.50;;
4434;SDS011;46552;52.150;8.428;2022-11-18T10:29:39;39.83;;;16.97;;
4434;SDS011;46552;52.150;8.428;2022-11-18T10:32:08;34.83;;;18.23;;
4434;SDS011;46552;52.150;8.428;2022-11-18T10:34:45;29.80;;;17.93;;
4434;SDS011;46552;52.150;8.428;2022-11-18T10:37:20;32.20;;;18.60;;
4434;SDS011;46552;52.150;8.428;2022-11-18T10:39:51;36.23;;;17.57;;
4434;SDS011;46552;52.150;8.428;2022-11-18T10:42:21;30.30;;;16.00;;
4434;SDS011;46552;52.150;8.428;2022-11-18T10:44:53;36.77;;;17.30;;
4434;SDS011;46552;52.150;8.428;2022-11-18T10:47:25;38.13;;;17.60;;
4434;SDS011;46552;52.150;8.428;2022-11-18T10:49:55;30.30;;;15.67;;
4434;SDS011;46552;52.150;8.428;2022-11-18T10:52:24;29.97;;;16.17;;
4434;SDS011;46552;52.150;8.428;2022-11-18T10:57:53;28.30;;;14.60;;
4434;SDS011;46552;52.150;8.428;2022-11-18T11:00:43;22.83;;;11.50;;
4434;SDS011;46552;52.150;8.428;2022-11-18T11:03:23;26.77;;;13.83;;
4434;SDS011;46552;52.150;8.428;2022-11-18T11:08:56;20.17;;;12.40;;
4434;SDS011;46552;52.150;8.428;2022-11-18T11:11:28;25.90;;;11.87;;
4434;SDS011;46552;52.150;8.428;2022-11-18T11:14:01;21.70;;;12.17;;
4434;SDS011;46552;52.150;8.428;2022-11-18T11:16:35;25.27;;;13.70;;
4434;SDS011;46552;52.150;8.428;2022-11-18T11:19:08;23.20;;;13.30;;
4434;SDS011;46552;52.150;8.428;2022-11-18T11:21:37;24.20;;;14.27;;
4434;SDS011;46552;52.150;8.428;2022-11-18T11:24:08;32.57;;;15.37;;
4434;SDS011;46552;52.150;8.428;2022-11-18T11:26:42;31.03;;;15.57;;
4434;SDS011;46552;52.150;8.428;2022-11-18T11:29:21;23.90;;;15.40;;
4434;SDS011;46552;52.150;8.428;2022-11-18T11:32:05;26.10;;;12.90;;
4434;SDS011;46552;52.150;8.428;2022-11-18T11:34:41;28.70;;;16.23;;
4434;SDS011;46552;52.150;8.428;2022-11-18T11:37:18;25.30;;;14.97;;
4434;SDS011;46552;52.150;8.428;2022-11-18T11:40:00;27.50;;;14.53;;
4434;SDS011;46552;52.150;8.428;2022-11-18T11:42:42;26.00;;;15.10;;
4434;SDS011;46552;52.150;8.428;2022-11-18T11:45:18;28.07;;;15.07;;
4434;SDS011;46552;52.150;8.428;2022-11-18T11:47:55;30.63;;;14.50;;
4434;SDS011;46552;52.150;8.428;2022-11-18T11:50:36;29.17;;;14.27;;
4434;SDS011;46552;52.150;8.428;2022-11-18T11:53:23;30.50;;;14.83;;
4434;SDS011;46552;52.150;8.428;2022-11-18T11:56:14;25.80;;;13.57;;
4434;SDS011;46552;52.150;8.428;2022-11-18T11:58:57;30.90;;;14.70;;
4434;SDS011;46552;52.150;8.428;2022-11-18T12:01:41;30.60;;;12.17;;
4434;SDS011;46552;52.150;8.428;2022-11-18T12:04:30;24.40;;;13.90;;
4434;SDS011;46552;52.150;8.428;2022-11-18T12:07:03;21.57;;;12.40;;
4434;SDS011;46552;52.150;8.428;2022-11-18T12:09:37;28.43;;;13.70;;
4434;SDS011;46552;52.150;8.428;2022-11-18T12:12:13;33.70;;;13.90;;
4434;SDS011;46552;52.150;8.428;2022-11-18T12:15:14;30.80;;;13.57;;
4434;SDS011;46552;52.150;8.428;2022-11-18T12:17:52;16.80;;;9.27;;
4434;SDS011;46552;52.150;8.428;2022-11-18T12:20:36;24.73;;;12.43;;
4434;SDS011;46552;52.150;8.428;2022-11-18T12:23:09;27.13;;;13.87;;
4434;SDS011;46552;52.150;8.428;2022-11-18T12:26:00;32.80;;;15.10;;
4434;SDS011;46552;52.150;8.428;2022-11-18T12:28:36;27.43;;;13.70;;
4434;SDS011;46552;52.150;8.428;2022-11-18T12:34:01;25.80;;;13.23;;
4434;SDS011;46552;52.150;8.428;2022-11-18T12:36:48;22.70;;;13.23;;
4434;SDS011;46552;52.150;8.428;2022-11-18T12:42:34;27.50;;;12.13;;
4434;SDS011;46552;52.150;8.428;2022-11-18T12:48:27;26.17;;;12.20;;
4434;SDS011;46552;52.150;8.428;2022-11-18T12:57:00;24.20;;;12.57;;
4434;SDS011;46552;52.150;8.428;2022-11-18T12:59:30;26.97;;;12.23;;
4434;SDS011;46552;52.150;8.428;2022-11-18T13:05:07;25.40;;;13.80;;
4434;SDS011;46552;52.150;8.428;2022-11-18T13:07:38;31.23;;;14.50;;
4434;SDS011;46552;52.150;8.428;2022-11-18T13:10:26;27.40;;;13.10;;
4434;SDS011;46552;52.150;8.428;2022-11-18T13:12:57;32.43;;;13.70;;
4434;SDS011;46552;52.150;8.428;2022-11-18T13:15:24;30.43;;;13.37;;
4434;SDS011;46552;52.150;8.428;2022-11-18T13:18:11;30.00;;;14.27;;
4434;SDS011;46552;52.150;8.428;2022-11-18T13:20:43;26.47;;;12.47;;
4434;SDS011;46552;52.150;8.428;2022-11-18T13:23:25;23.93;;;12.20;;
4434;SDS011;46552;52.150;8.428;2022-11-18T13:26:11;23.80;;;12.47;;
4434;SDS011;46552;52.150;8.428;2022-11-18T13:28:45;30.07;;;13.13;;
4434;SDS011;46552;52.150;8.428;2022-11-18T13:31:33;23.50;;;11.70;;
4434;SDS011;46552;52.150;8.428;2022-11-18T13:34:09;25.53;;;12.50;;
4434;SDS011;46552;52.150;8.428;2022-11-18T13:36:46;27.93;;;12.80;;
4434;SDS011;46552;52.150;8.428;2022-11-18T13:39:20;26.13;;;14.60;;
4434;SDS011;46552;52.150;8.428;2022-11-18T13:41:59;20.67;;;12.20;;
4434;SDS011;46552;52.150;8.428;2022-11-18T13:44:28;28.57;;;14.50;;
4434;SDS011;46552;52.150;8.428;2022-11-18T13:46:58;25.17;;;13.57;;
4434;SDS011;46552;52.150;8.428;2022-11-18T13:49:34;32.27;;;15.70;;
4434;SDS011;46552;52.150;8.428;2022-11-18T13:52:10;25.13;;;13.73;;
4434;SDS011;46552;52.150;8.428;2022-11-18T13:54:39;32.63;;;15.07;;
4434;SDS011;46552;52.150;8.428;2022-11-18T13:57:12;30.10;;;14.50;;
4434;SDS011;46552;52.150;8.428;2022-11-18T13:59:43;28.77;;;15.10;;
4434;SDS011;46552;52.150;8.428;2022-11-18T14:02:12;33.80;;;14.93;;
4434;SDS011;46552;52.150;8.428;2022-11-18T14:04:46;27.37;;;14.60;;
4434;SDS011;46552;52.150;8.428;2022-11-18T14:07:29;26.40;;;13.93;;
4434;SDS011;46552;52.150;8.428;2022-11-18T14:09:59;30.53;;;15.03;;
4434;SDS011;46552;52.150;8.428;2022-11-18T14:12:28;30.77;;;15.73;;
4434;SDS011;46552;52.150;8.428;2022-11-18T14:15:14;24.97;;;13.63;;
4434;SDS011;46552;52.150;8.428;2022-11-18T14:17:50;37.43;;;12.80;;
4434;SDS011;46552;52.150;8.428;2022-11-18T14:20:21;32.40;;;15.37;;
4434;SDS011;46552;52.150;8.428;2022-11-18T14:22:52;30.50;;;13.80;;
4434;SDS011;46552;52.150;8.428;2022-11-18T14:25:22;35.27;;;14.27;;
4434;SDS011;46552;52.150;8.428;2022-11-18T14:27:53;27.90;;;14.73;;
4434;SDS011;46552;52.150;8.428;2022-11-18T14:33:17;30.77;;;15.27;;
4434;SDS011;46552;52.150;8.428;2022-11-18T14:35:50;28.67;;;14.53;;
4434;SDS011;46552;52.150;8.428;2022-11-18T14:38:21;28.53;;;14.83;;
4434;SDS011;46552;52.150;8.428;2022-11-18T14:40:55;26.10;;;14.93;;
4434;SDS011;46552;52.150;8.428;2022-11-18T14:43:23;29.53;;;14.20;;
4434;SDS011;46552;52.150;8.428;2022-11-18T14:45:51;25.53;;;12.60;;
4434;SDS011;46552;52.150;8.428;2022-11-18T14:48:20;23.47;;;12.73;;
4434;SDS011;46552;52.150;8.428;2022-11-18T14:50:48;26.53;;;12.13;;
4434;SDS011;46552;52.150;8.428;2022-11-18T14:53:16;21.33;;;11.17;;
4434;SDS011;46552;52.150;8.428;2022-11-18T14:55:47;26.90;;;14.73;;
4434;SDS011;46552;52.150;8.428;2022-11-18T14:58:16;23.40;;;12.17;;
4434;SDS011;46552;52.150;8.428;2022-11-18T15:00:44;17.93;;;11.47;;
4434;SDS011;46552;52.150;8.428;2022-11-18T15:03:13;25.70;;;11.73;;
4434;SDS011;46552;52.150;8.428;2022-11-18T15:05:41;21.30;;;11.10;;
4434;SDS011;46552;52.150;8.428;2022-11-18T15:08:08;21.80;;;10.60;;
4434;SDS011;46552;52.150;8.428;2022-11-18T15:10:35;22.73;;;10.70;;
4434;SDS011;46552;52.150;8.428;2022-11-18T15:13:04;24.30;;;11.70;;
4434;SDS011;46552;52.150;8.428;2022-11-18T15:15:31;23.57;;;10.13;;
4434;SDS011;46552;52.150;8.428;2022-11-18T15:17:58;20.07;;;11.07;;
4434;SDS011;46552;52.150;8.428;2022-11-18T15:20:25;18.23;;;10.87;;
4434;SDS011;46552;52.150;8.428;2022-11-18T15:22:53;20.80;;;11.33;;
4434;SDS011;46552;52.150;8.428;2022-11-18T15:25:20;19.20;;;11.33;;
4434;SDS011;46552;52.150;8.428;2022-11-18T15:27:48;19.80;;;11.33;;
4434;SDS011;46552;52.150;8.428;2022-11-18T15:30:17;22.77;;;11.43;;